Time;durP1;ratioP1;P1;durP2;ratioP2;P2;SDS_P1;SDS_P2;PMS_P1;PMS_P2;Temp;Humidity;BMP_temperature;BMP_pressure;BME280_temperature;BME280_humidity;BME280_pressure;Samples;Min_cycle;Max_cycle;Signal;HPM_P1;HPM_P2
2021/01/11 00:01:05;;;;;;;93.63;38.58;;;-4.30;99.90;;;;;;4972155;28;20098;-78
2021/01/11 00:03:31;;;;;;;92.32;38.88;;;-4.30;99.90;;;;;;4976391;28;20381;-77
2021/01/11 00:05:57;;;;;;;87.40;34.45;;;-4.30;99.90;;;;;;4975060;28;20023;-77
2021/01/11 00:08:23;;;;;;;91.25;35.92;;;-4.40;99.90;;;;;;4974958;28;20046;-78
2021/01/11 00:10:50;;;;;;;95.80;37.33;;;-4.40;99.90;;;;;;4976209;28;20034;-79
2021/01/11 00:13:15;;;;;;;82.97;33.67;;;-4.40;99.90;;;;;;4975880;28;20026;-79
2021/01/11 00:15:41;;;;;;;87.38;32.95;;;-4.40;99.90;;;;;;4974981;28;20042;-77
2021/01/11 00:18:07;;;;;;;101.68;38.08;;;-4.50;99.90;;;;;;4976079;28;20110;-79
2021/01/11 00:20:32;;;;;;;99.65;38.47;;;-4.60;99.90;;;;;;4974764;28;20110;-80
2021/01/11 00:22:58;;;;;;;95.50;38.25;;;-4.50;99.90;;;;;;4975657;28;20030;-80
2021/01/11 00:25:24;;;;;;;97.63;40.22;;;-4.50;99.90;;;;;;4974762;28;20033;-77
2021/01/11 00:27:50;;;;;;;103.93;39.63;;;-4.60;99.90;;;;;;4975669;28;20085;-77
2021/01/11 00:30:16;;;;;;;94.80;35.88;;;-4.70;99.90;;;;;;4990839;28;20526;-78
2021/01/11 00:32:42;;;;;;;92.10;37.05;;;-4.70;99.90;;;;;;4974541;28;20023;-77
2021/01/11 00:35:09;;;;;;;91.30;37.80;;;-4.70;99.90;;;;;;4975989;28;20027;-77
2021/01/11 00:37:35;;;;;;;90.75;35.45;;;-4.80;99.90;;;;;;4975923;28;20023;-77
2021/01/11 00:40:00;;;;;;;97.20;37.25;;;-4.80;99.90;;;;;;4990591;28;20037;-77
2021/01/11 00:42:26;;;;;;;95.40;38.47;;;-4.90;99.90;;;;;;4990660;28;20023;-76
2021/01/11 00:44:52;;;;;;;96.30;38.38;;;-5.00;99.90;;;;;;4975659;28;20037;-79
2021/01/11 00:47:17;;;;;;;86.97;38.20;;;-5.10;99.90;;;;;;4973973;28;20062;-79
2021/01/11 00:49:43;;;;;;;100.50;40.33;;;-5.10;99.90;;;;;;4975456;28;20404;-79
2021/01/11 00:52:09;;;;;;;109.75;41.25;;;-5.20;99.90;;;;;;4974091;28;20460;-79
2021/01/11 00:54:35;;;;;;;85.63;36.20;;;-5.20;99.90;;;;;;4974172;28;20031;-79
2021/01/11 00:57:00;;;;;;;89.75;35.50;;;-5.30;99.90;;;;;;4975435;28;20484;-79
2021/01/11 00:59:26;;;;;;;70.25;30.33;;;-5.40;99.90;;;;;;4974054;28;20031;-79
2021/01/11 01:01:57;;;;;;;67.38;27.08;;;-5.50;99.90;;;;;;4990186;28;20539;-79
2021/01/11 01:04:23;;;;;;;65.63;27.38;;;-5.50;99.90;;;;;;4975246;28;20027;-79
2021/01/11 01:06:48;;;;;;;62.72;26.42;;;-5.60;99.90;;;;;;4973904;28;20026;-79
2021/01/11 01:09:14;;;;;;;76.40;25.30;;;-5.70;99.90;;;;;;4975130;28;20097;-79
2021/01/11 01:11:42;;;;;;;65.00;24.15;;;-5.70;99.90;;;;;;4973942;28;20591;-79
2021/01/11 01:14:08;;;;;;;58.60;24.45;;;-5.70;99.90;;;;;;4975069;28;20022;-79
2021/01/11 01:16:35;;;;;;;68.13;25.17;;;-5.70;99.90;;;;;;4973646;28;20041;-79
2021/01/11 01:19:02;;;;;;;65.88;24.60;;;-5.70;99.90;;;;;;4974957;28;20033;-79
2021/01/11 01:21:27;;;;;;;72.40;29.08;;;-5.70;99.90;;;;;;4974986;28;20033;-78
2021/01/11 01:23:53;;;;;;;64.53;25.70;;;-5.70;99.90;;;;;;4973540;28;20019;-79
2021/01/11 01:26:19;;;;;;;72.10;28.05;;;-5.80;99.90;;;;;;4974883;28;20026;-79
2021/01/11 01:28:45;;;;;;;65.70;27.90;;;-5.80;99.90;;;;;;4973586;28;20150;-79
2021/01/11 01:31:11;;;;;;;69.97;27.33;;;-5.80;99.90;;;;;;4973464;28;20042;-78
2021/01/11 01:33:36;;;;;;;93.65;35.78;;;-5.90;99.90;;;;;;4973477;28;20488;-79
2021/01/11 01:36:02;;;;;;;69.07;28.15;;;-5.90;99.90;;;;;;4973434;28;20069;-78
2021/01/11 01:38:28;;;;;;;59.15;26.15;;;-6.00;99.90;;;;;;4973105;28;20028;-78
2021/01/11 01:40:54;;;;;;;65.85;25.88;;;-6.00;99.90;;;;;;4973424;28;20065;-78
2021/01/11 01:43:20;;;;;;;57.70;22.65;;;-6.10;99.90;;;;;;4974592;28;20480;-78
2021/01/11 01:45:46;;;;;;;58.33;23.88;;;-6.20;99.90;;;;;;4972589;28;20054;-78
2021/01/11 01:48:12;;;;;;;59.08;23.77;;;-6.20;99.90;;;;;;4973194;28;20038;-79
2021/01/11 01:50:40;;;;;;;60.88;24.00;;;-6.20;99.90;;;;;;4973251;28;20035;-78
2021/01/11 01:53:05;;;;;;;50.85;24.75;;;-6.20;99.90;;;;;;4974363;28;20062;-79
2021/01/11 01:55:32;;;;;;;52.95;21.30;;;-6.30;99.90;;;;;;4973201;28;20020;-79
2021/01/11 01:58:03;;;;;;;53.40;20.98;;;-6.30;99.90;;;;;;4972985;28;20388;-79
2021/01/11 02:00:29;;;;;;;61.22;24.33;;;-6.40;99.90;;;;;;4974367;28;20026;-79
2021/01/11 02:02:54;;;;;;;69.03;26.25;;;-6.40;99.90;;;;;;4974277;28;20038;-78
2021/01/11 02:05:20;;;;;;;52.65;22.70;;;-6.40;99.90;;;;;;4972286;28;20157;-79
2021/01/11 02:08:10;;;;;;;50.83;23.52;;;-6.40;99.90;;;;;;4974058;28;20053;-78
2021/01/11 02:10:40;;;;;;;59.00;23.58;;;-6.50;99.90;;;;;;4972898;28;20053;-78
2021/01/11 02:13:31;;;;;;;64.40;23.95;;;-6.50;99.90;;;;;;4974422;28;20392;-79
2021/01/11 02:16:09;;;;;;;73.65;28.30;;;-6.50;99.90;;;;;;4974258;28;20023;-79
2021/01/11 02:19:07;;;;;;;61.43;23.77;;;-6.50;99.90;;;;;;4972966;28;20110;-79
2021/01/11 02:21:44;;;;;;;45.43;18.67;;;-6.60;99.90;;;;;;4972884;28;20476;-79
2021/01/11 02:24:37;;;;;;;39.65;17.20;;;-6.70;99.90;;;;;;4972771;28;20085;-79
2021/01/11 02:27:21;;;;;;;44.00;19.48;;;-6.70;99.90;;;;;;4972869;28;20023;-78
2021/01/11 02:30:03;;;;;;;48.63;21.80;;;-6.80;99.90;;;;;;4973683;28;20035;-78
2021/01/11 02:32:30;;;;;;;45.47;21.87;;;-6.80;99.90;;;;;;4972863;28;20031;-78
2021/01/11 02:34:57;;;;;;;46.40;17.80;;;-6.90;99.90;;;;;;4972681;28;20054;-78
2021/01/11 02:37:24;;;;;;;41.17;18.07;;;-7.00;99.90;;;;;;4972720;28;20019;-78
2021/01/11 02:39:50;;;;;;;39.80;16.03;;;-7.00;99.90;;;;;;4973885;28;20041;-79
2021/01/11 02:42:16;;;;;;;38.73;17.80;;;-7.00;99.90;;;;;;4973854;28;20073;-78
2021/01/11 02:44:42;;;;;;;46.60;20.50;;;-7.00;99.90;;;;;;4972642;28;20493;-78
2021/01/11 02:47:08;;;;;;;41.13;18.33;;;-7.00;99.90;;;;;;4988734;28;20026;-78
2021/01/11 02:49:47;;;;;;;55.33;22.17;;;-7.00;99.90;;;;;;4973810;28;20022;-78
2021/01/11 02:52:47;;;;;;;48.37;20.33;;;-7.00;99.90;;;;;;4972614;28;20026;-78
2021/01/11 02:55:20;;;;;;;43.37;17.30;;;-7.00;99.90;;;;;;4972693;28;20059;-78
2021/01/11 02:57:58;;;;;;;31.37;13.70;;;-7.10;99.90;;;;;;4988520;28;20030;-79
2021/01/11 03:00:25;;;;;;;30.90;13.93;;;-7.10;99.90;;;;;;4972372;28;20053;-79
2021/01/11 03:02:52;;;;;;;31.20;13.60;;;-7.20;99.90;;;;;;4972401;28;20067;-79
2021/01/11 03:05:19;;;;;;;24.40;13.05;;;-7.20;99.90;;;;;;4972456;28;20031;-78
2021/01/11 03:07:58;;;;;;;30.43;13.53;;;-7.20;99.90;;;;;;4972426;28;20039;-78
2021/01/11 03:10:24;;;;;;;34.58;14.75;;;-7.20;99.90;;;;;;4972706;28;20066;-78
2021/01/11 03:12:50;;;;;;;77.03;30.87;;;-7.10;99.90;;;;;;4972374;28;20081;-78
2021/01/11 03:15:16;;;;;;;63.10;26.50;;;-7.10;99.90;;;;;;4972559;28;20018;-78
2021/01/11 03:17:43;;;;;;;41.50;18.20;;;-7.10;99.90;;;;;;4975950;28;20489;-79
2021/01/11 03:20:13;;;;;;;47.67;19.98;;;-7.00;99.90;;;;;;4975643;28;20030;-79
2021/01/11 03:22:39;;;;;;;42.27;17.60;;;-7.10;99.90;;;;;;4975914;28;20015;-78
2021/01/11 03:25:06;;;;;;;39.33;17.45;;;-7.00;99.90;;;;;;4977111;28;20030;-78
2021/01/11 03:27:32;;;;;;;38.60;16.10;;;-7.00;99.90;;;;;;4977149;28;20432;-78
2021/01/11 03:29:57;;;;;;;39.17;17.03;;;-7.00;99.90;;;;;;4975659;28;20126;-78
2021/01/11 03:32:23;;;;;;;42.20;16.77;;;-7.00;99.90;;;;;;4977033;28;20031;-78
2021/01/11 03:34:49;;;;;;;26.60;14.20;;;-6.90;99.90;;;;;;4975691;28;20031;-78
2021/01/11 03:37:16;;;;;;;41.07;16.93;;;-6.80;99.90;;;;;;4975630;28;20027;-78
2021/01/11 03:39:41;;;;;;;31.60;16.27;;;-6.80;99.90;;;;;;4990640;28;20023;-78
2021/01/11 03:42:07;;;;;;;32.30;14.50;;;-6.70;99.90;;;;;;4995011;28;20113;-78
2021/01/11 03:44:32;;;;;;;35.72;14.43;;;-6.60;99.90;;;;;;4994923;28;20022;-78
2021/01/11 03:46:58;;;;;;;35.03;14.17;;;-6.60;99.90;;;;;;4994869;28;20072;-79
2021/01/11 03:49:24;;;;;;;31.63;14.20;;;-6.50;99.90;;;;;;4994707;28;20117;-78
2021/01/11 03:51:49;;;;;;;28.93;13.93;;;-6.50;99.90;;;;;;4976229;28;20118;-78
2021/01/11 03:54:15;;;;;;;34.87;14.70;;;-6.40;99.90;;;;;;4975223;28;20117;-78
2021/01/11 03:56:41;;;;;;;36.67;15.15;;;-6.30;99.90;;;;;;4975317;28;20543;-78
2021/01/11 03:59:06;;;;;;;36.50;14.27;;;-6.30;99.90;;;;;;4975194;28;20365;-78
2021/01/11 04:01:36;;;;;;;47.30;18.52;;;-6.20;99.90;;;;;;4975235;28;20066;-78
2021/01/11 04:04:02;;;;;;;115.83;45.67;;;-6.10;99.90;;;;;;4976059;28;20035;-78
2021/01/11 04:06:27;;;;;;;78.40;35.53;;;-6.00;99.90;;;;;;4976431;28;20069;-78
2021/01/11 04:08:53;;;;;;;74.10;29.60;;;-6.00;99.90;;;;;;4976456;28;20123;-78
2021/01/11 04:11:19;;;;;;;64.63;28.83;;;-5.90;99.90;;;;;;4991219;28;20035;-78
2021/01/11 04:13:46;;;;;;;77.22;32.90;;;-5.80;99.90;;;;;;4974936;28;20027;-78
2021/01/11 04:16:11;;;;;;;82.97;34.13;;;-5.80;99.90;;;;;;4974980;28;20468;-78
2021/01/11 04:18:37;;;;;;;83.03;33.75;;;-5.70;99.90;;;;;;4976134;28;20037;-78
2021/01/11 04:21:03;;;;;;;100.40;42.83;;;-5.60;99.90;;;;;;4991013;28;20030;-78
2021/01/11 04:23:28;;;;;;;85.10;37.20;;;-5.60;99.90;;;;;;4976059;28;20540;-79
2021/01/11 04:25:54;;;;;;;54.03;21.00;;;-5.50;99.90;;;;;;4991071;28;20019;-79
2021/01/11 04:28:19;;;;;;;40.67;17.52;;;-5.50;99.90;;;;;;4990095;28;20108;-78
2021/01/11 04:30:45;;;;;;;44.47;19.13;;;-5.40;99.90;;;;;;4975790;28;20053;-79
2021/01/11 04:33:10;;;;;;;53.00;23.63;;;-5.40;99.90;;;;;;4976105;28;20366;-79
2021/01/11 04:35:36;;;;;;;57.75;22.95;;;-5.40;99.90;;;;;;4974684;28;20018;-79
2021/01/11 04:38:02;;;;;;;55.95;20.85;;;-5.30;99.90;;;;;;4975713;28;20499;-79
2021/01/11 04:40:27;;;;;;;52.08;20.98;;;-5.30;99.90;;;;;;4990748;28;20042;-79
2021/01/11 04:43:03;;;;;;;54.13;22.50;;;-5.30;99.90;;;;;;4974704;28;20023;-79
2021/01/11 04:45:29;;;;;;;63.83;26.40;;;-5.30;99.90;;;;;;4973752;28;20019;-79
2021/01/11 04:47:57;;;;;;;58.13;23.85;;;-5.20;99.90;;;;;;4974098;28;20026;-79
2021/01/11 04:50:24;;;;;;;52.35;22.10;;;-5.20;99.90;;;;;;4975416;28;20400;-79
2021/01/11 04:52:50;;;;;;;42.28;20.88;;;-5.20;99.90;;;;;;4975483;28;20027;-79
2021/01/11 04:55:16;;;;;;;67.07;26.15;;;-5.20;99.90;;;;;;4974268;28;20069;-78
2021/01/11 04:57:58;;;;;;;60.15;26.83;;;-5.20;99.90;;;;;;4990391;28;20034;-78
2021/01/11 05:00:29;;;;;;;72.72;29.00;;;-5.20;99.90;;;;;;4990222;28;20027;-79
2021/01/11 05:03:03;;;;;;;90.00;32.30;;;-5.10;99.90;;;;;;4974114;28;20023;-79
2021/01/11 05:05:34;;;;;;;77.32;30.83;;;-5.10;99.90;;;;;;4974067;28;20106;-79
2021/01/11 05:07:59;;;;;;;70.40;31.27;;;-5.10;99.90;;;;;;4990129;28;20027;-79
2021/01/11 05:10:29;;;;;;;78.82;34.13;;;-5.10;99.90;;;;;;4975611;28;20054;-79
2021/01/11 05:12:58;;;;;;;78.93;35.10;;;-5.00;99.90;;;;;;4975119;28;20019;-79
2021/01/11 05:15:30;;;;;;;74.40;30.05;;;-5.00;99.90;;;;;;4973850;28;20061;-78
2021/01/11 05:17:56;;;;;;;93.40;36.80;;;-5.00;99.90;;;;;;4974897;28;20042;-78
2021/01/11 05:20:31;;;;;;;98.93;37.65;;;-5.00;99.90;;;;;;4974315;28;20484;-79
2021/01/11 05:22:58;;;;;;;77.05;32.17;;;-5.00;99.90;;;;;;4973629;28;20022;-78
2021/01/11 05:25:27;;;;;;;79.45;33.83;;;-5.00;99.90;;;;;;4974747;28;20499;-79
2021/01/11 05:28:08;;;;;;;81.13;33.15;;;-4.90;99.90;;;;;;4973595;28;20025;-79
2021/01/11 05:30:35;;;;;;;89.60;35.40;;;-4.90;99.90;;;;;;4974757;28;20035;-79
2021/01/11 05:33:00;;;;;;;91.95;34.92;;;-4.80;99.90;;;;;;4973641;28;20361;-79
2021/01/11 05:35:27;;;;;;;96.03;40.30;;;-4.80;99.90;;;;;;4973459;28;20033;-77
2021/01/11 05:37:59;;;;;;;89.10;37.33;;;-4.80;99.90;;;;;;4974565;28;20035;-78
2021/01/11 05:40:26;;;;;;;96.47;40.30;;;-4.80;99.90;;;;;;4989744;28;20116;-79
2021/01/11 05:42:56;;;;;;;116.63;45.78;;;-4.70;99.90;;;;;;4973320;28;20023;-79
2021/01/11 05:45:30;;;;;;;119.43;47.88;;;-4.70;99.90;;;;;;4973081;28;20058;-79
2021/01/11 05:48:09;;;;;;;124.65;49.08;;;-4.70;99.90;;;;;;4974505;28;20550;-77
2021/01/11 05:50:43;;;;;;;108.50;44.95;;;-4.60;99.90;;;;;;4974516;28;20038;-77
2021/01/11 05:53:20;;;;;;;100.38;41.97;;;-4.60;99.90;;;;;;4973143;28;20023;-77
2021/01/11 05:55:47;;;;;;;107.28;41.17;;;-4.60;99.90;;;;;;4973083;28;20034;-77
2021/01/11 05:58:13;;;;;;;66.78;28.05;;;-4.50;99.90;;;;;;4973071;28;20019;-77
2021/01/11 06:00:40;;;;;;;78.72;28.27;;;-4.50;99.90;;;;;;4973166;28;20102;-77
2021/01/11 06:03:08;;;;;;;77.47;31.55;;;-4.50;99.90;;;;;;4974348;28;20042;-77
2021/01/11 06:05:35;;;;;;;64.30;30.00;;;-4.50;99.90;;;;;;4972995;28;20054;-77
2021/01/11 06:08:05;;;;;;;84.65;31.98;;;-4.40;99.90;;;;;;4973132;28;20030;-77
2021/01/11 06:10:30;;;;;;;69.57;29.70;;;-4.40;99.90;;;;;;4974893;28;20109;-77
2021/01/11 06:12:56;;;;;;;83.43;31.63;;;-4.40;99.90;;;;;;4973003;28;20476;-77
2021/01/11 06:15:27;;;;;;;71.38;28.25;;;-4.30;99.90;;;;;;4972644;28;20038;-78
2021/01/11 06:17:55;;;;;;;85.00;30.33;;;-4.30;99.90;;;;;;4972691;28;20038;-79
2021/01/11 06:20:26;;;;;;;74.20;29.73;;;-4.30;99.90;;;;;;4972609;28;20019;-77
2021/01/11 06:22:51;;;;;;;73.03;30.10;;;-4.30;99.90;;;;;;4974026;28;20392;-76
2021/01/11 06:25:17;;;;;;;72.55;33.40;;;-4.20;99.90;;;;;;4982066;28;20034;-77
2021/01/11 06:27:52;;;;;;;63.25;28.92;;;-4.30;99.90;;;;;;4982836;28;20031;-77
2021/01/11 06:30:33;;;;;;;82.28;32.00;;;-4.30;99.90;;;;;;4971725;28;20035;-77
2021/01/11 06:33:15;;;;;;;75.53;31.25;;;-4.30;99.90;;;;;;4971476;28;20043;-77
2021/01/11 06:35:45;;;;;;;161.03;55.43;;;-4.20;99.90;;;;;;4953436;29;20032;-79
2021/01/11 06:38:18;;;;;;;166.30;59.60;;;-4.30;99.90;;;;;;4953346;28;20023;-77
2021/01/11 06:40:45;;;;;;;86.70;35.97;;;-4.20;99.90;;;;;;4953443;28;20035;-77
2021/01/11 06:43:11;;;;;;;109.28;41.15;;;-4.30;99.90;;;;;;4954580;28;20504;-77
2021/01/11 06:45:38;;;;;;;132.45;49.30;;;-4.20;99.90;;;;;;4957288;28;20022;-77
2021/01/11 06:48:06;;;;;;;109.38;40.33;;;-4.20;99.90;;;;;;4973877;28;20023;-77
2021/01/11 06:50:33;;;;;;;107.38;40.50;;;-4.20;99.90;;;;;;4975821;28;20074;-77
2021/01/11 06:53:00;;;;;;;119.93;43.78;;;-4.20;99.90;;;;;;4982649;28;20081;-78
2021/01/11 06:55:26;;;;;;;122.05;42.65;;;-4.20;99.90;;;;;;4977634;28;20031;-77
2021/01/11 06:57:56;;;;;;;224.05;81.85;;;-4.20;99.90;;;;;;4977662;28;20030;-79
2021/01/11 07:00:31;;;;;;;205.77;80.15;;;-4.10;99.90;;;;;;4977511;28;20034;-79
2021/01/11 07:02:57;;;;;;;109.32;44.10;;;-4.20;99.90;;;;;;4975927;28;20507;-77
2021/01/11 07:05:35;;;;;;;156.52;58.45;;;-4.10;99.90;;;;;;4975751;28;20025;-77
2021/01/11 07:08:13;;;;;;;154.80;64.50;;;-4.10;99.90;;;;;;4973559;28;20451;-77
2021/01/11 07:10:41;;;;;;;103.50;42.88;;;-4.10;99.90;;;;;;4975557;28;20038;-78
2021/01/11 07:13:19;;;;;;;98.75;45.05;;;-4.10;99.90;;;;;;4975542;28;20019;-77
2021/01/11 07:15:50;;;;;;;107.13;40.60;;;-4.00;99.90;;;;;;4977312;28;20500;-77
2021/01/11 07:18:38;;;;;;;107.43;45.03;;;-3.90;99.90;;;;;;4976064;28;20045;-77
2021/01/11 07:21:10;;;;;;;118.90;54.95;;;-3.90;99.90;;;;;;4975876;28;20078;-77
2021/01/11 07:23:36;;;;;;;104.50;44.75;;;-3.90;99.90;;;;;;4975947;28;20035;-77
2021/01/11 07:26:02;;;;;;;89.68;38.22;;;-3.80;99.90;;;;;;4977186;28;20093;-77
2021/01/11 07:28:27;;;;;;;93.57;39.85;;;-3.80;99.90;;;;;;4975833;28;20018;-77
2021/01/11 07:30:54;;;;;;;106.68;45.65;;;-3.70;99.90;;;;;;4975617;28;20396;-78
2021/01/11 07:33:23;;;;;;;98.53;44.15;;;-3.70;99.90;;;;;;4975228;28;20031;-77
2021/01/11 07:35:49;;;;;;;100.57;43.42;;;-3.60;99.90;;;;;;4975753;28;20030;-77
2021/01/11 07:38:18;;;;;;;102.95;41.35;;;-3.60;99.90;;;;;;4980181;28;20396;-78
2021/01/11 07:40:44;;;;;;;88.93;39.38;;;-3.60;99.90;;;;;;4985015;28;20050;-78
2021/01/11 07:43:10;;;;;;;93.75;38.25;;;-3.50;99.90;;;;;;4983925;28;20488;-77
2021/01/11 07:45:36;;;;;;;87.25;35.03;;;-3.60;99.90;;;;;;4985676;28;20038;-77
2021/01/11 07:48:02;;;;;;;80.60;35.13;;;-3.50;99.90;;;;;;4994865;28;20023;-77
2021/01/11 07:50:31;;;;;;;80.88;35.13;;;-3.50;99.90;;;;;;4996142;28;20037;-77
2021/01/11 07:52:57;;;;;;;93.95;35.03;;;-3.40;99.90;;;;;;4976190;28;20034;-77
2021/01/11 07:55:29;;;;;;;96.05;37.78;;;-3.40;99.90;;;;;;4977256;28;20037;-77
2021/01/11 07:58:04;;;;;;;90.60;37.75;;;-3.30;99.90;;;;;;4975941;28;20030;-79
2021/01/11 08:00:31;;;;;;;95.80;37.08;;;-3.30;99.90;;;;;;4975122;28;20038;-77
2021/01/11 08:02:58;;;;;;;92.95;37.60;;;-3.30;99.90;;;;;;4973919;28;20320;-77
2021/01/11 08:05:25;;;;;;;89.80;37.55;;;-3.20;99.90;;;;;;4976311;28;20101;-77
2021/01/11 08:08:14;;;;;;;90.43;39.00;;;-3.20;99.90;;;;;;4975610;28;20027;-78
2021/01/11 08:10:40;;;;;;;86.13;38.00;;;-3.20;99.90;;;;;;4976204;28;20042;-77
2021/01/11 08:13:07;;;;;;;73.93;34.60;;;-3.20;99.90;;;;;;4991169;28;20023;-77
2021/01/11 08:15:33;;;;;;;109.68;47.08;;;-3.10;99.90;;;;;;4974615;28;20507;-80
2021/01/11 08:18:01;;;;;;;133.50;56.08;;;-3.00;99.90;;;;;;4986425;28;20042;-77
2021/01/11 08:20:27;;;;;;;86.72;38.55;;;-3.00;99.90;;;;;;4989455;28;20045;-77
2021/01/11 08:22:53;;;;;;;113.28;45.33;;;-3.00;99.90;;;;;;4974640;28;20023;-76
2021/01/11 08:25:20;;;;;;;154.82;57.90;;;-2.90;99.90;;;;;;4989666;28;20026;-77
2021/01/11 08:27:49;;;;;;;146.68;57.20;;;-2.90;99.90;;;;;;4986133;28;20038;-76
2021/01/11 08:30:19;;;;;;;113.18;46.55;;;-2.80;99.90;;;;;;4973456;28;20035;-77
2021/01/11 08:32:46;;;;;;;98.30;43.97;;;-2.80;99.90;;;;;;4976082;28;20066;-77
2021/01/11 08:35:12;;;;;;;110.13;44.45;;;-2.80;99.90;;;;;;4989490;28;20019;-77
2021/01/11 08:37:39;;;;;;;132.32;53.35;;;-2.90;99.90;;;;;;4980379;28;20082;-77
2021/01/11 08:40:17;;;;;;;113.55;50.00;;;-2.80;99.90;;;;;;4998602;28;20498;-77
2021/01/11 08:42:43;;;;;;;108.20;46.70;;;-2.80;99.90;;;;;;4990578;28;20110;-77
2021/01/11 08:45:34;;;;;;;112.60;48.70;;;-2.80;99.90;;;;;;4986435;28;20072;-77
2021/01/11 08:48:08;;;;;;;114.57;50.38;;;-2.90;99.90;;;;;;4979279;28;20045;-77
2021/01/11 08:50:38;;;;;;;200.75;77.32;;;-2.90;99.90;;;;;;4971004;28;20034;-78
2021/01/11 08:53:38;;;;;;;132.38;58.97;;;-2.90;99.90;;;;;;4975152;28;20022;-78
2021/01/11 08:56:09;;;;;;;138.15;56.65;;;-2.80;99.90;;;;;;4971859;28;20089;-77
2021/01/11 08:58:36;;;;;;;136.00;57.38;;;-2.80;99.90;;;;;;4974396;28;20070;-77
2021/01/11 09:01:16;;;;;;;139.07;61.25;;;-2.80;99.90;;;;;;4971144;28;20026;-77
2021/01/11 09:03:52;;;;;;;121.40;52.75;;;-2.90;99.90;;;;;;4972250;28;20069;-77
2021/01/11 09:06:38;;;;;;;116.20;52.63;;;-2.80;99.90;;;;;;4973428;28;20117;-77
2021/01/11 09:09:12;;;;;;;156.23;65.50;;;-2.80;99.90;;;;;;4974079;28;20097;-76
2021/01/11 09:11:39;;;;;;;176.15;76.50;;;-2.90;99.90;;;;;;4974173;28;20035;-77
2021/01/11 09:14:12;;;;;;;191.65;80.28;;;-3.00;99.90;;;;;;4972053;28;20030;-77
2021/01/11 09:16:38;;;;;;;196.63;83.78;;;-2.90;99.90;;;;;;4972853;28;20493;-77
2021/01/11 09:19:15;;;;;;;208.60;87.03;;;-3.00;99.90;;;;;;4973259;28;20023;-77
2021/01/11 09:21:42;;;;;;;154.68;69.43;;;-3.00;99.90;;;;;;4971757;28;20403;-76
2021/01/11 09:24:12;;;;;;;147.35;63.85;;;-2.90;99.90;;;;;;4973503;28;20073;-77
2021/01/11 09:26:39;;;;;;;162.23;69.53;;;-2.80;99.90;;;;;;4974157;28;20094;-77
2021/01/11 09:29:06;;;;;;;200.85;84.07;;;-2.80;99.90;;;;;;4973870;28;20034;-77
2021/01/11 09:31:33;;;;;;;204.65;78.00;;;-2.70;99.90;;;;;;4974100;28;20034;-77
2021/01/11 09:33:59;;;;;;;173.13;70.53;;;-2.60;99.90;;;;;;4972860;28;20027;-77
2021/01/11 09:36:30;;;;;;;175.73;71.15;;;-2.60;99.90;;;;;;4973038;28;20085;-77
2021/01/11 09:38:56;;;;;;;197.75;73.82;;;-2.60;99.90;;;;;;4989259;28;20147;-76
2021/01/11 09:41:21;;;;;;;169.82;67.75;;;-2.50;99.90;;;;;;4972916;28;20051;-76
2021/01/11 09:43:47;;;;;;;158.23;68.13;;;-2.40;99.90;;;;;;4974417;28;20101;-77
2021/01/11 09:46:14;;;;;;;179.73;72.68;;;-2.40;99.90;;;;;;4971760;28;20035;-76
2021/01/11 09:48:40;;;;;;;148.93;64.13;;;-2.30;99.90;;;;;;4989042;28;20031;-78
2021/01/11 09:51:05;;;;;;;133.82;57.67;;;-2.20;99.90;;;;;;4972814;28;20404;-77
2021/01/11 09:53:31;;;;;;;135.00;54.85;;;-2.20;99.90;;;;;;4963479;28;20106;-77
2021/01/11 09:55:57;;;;;;;127.25;57.15;;;-2.20;99.90;;;;;;4969749;28;20485;-77
2021/01/11 09:58:22;;;;;;;135.23;61.75;;;-2.20;99.90;;;;;;4959639;28;20447;-77
2021/01/11 10:00:48;;;;;;;186.02;78.15;;;-2.10;99.90;;;;;;4989196;28;20137;-77
2021/01/11 10:03:14;;;;;;;182.13;73.65;;;-2.00;99.90;;;;;;4973054;28;20508;-78
2021/01/11 10:05:39;;;;;;;152.65;67.63;;;-2.00;99.50;;;;;;4974221;28;20026;-78
2021/01/11 10:08:05;;;;;;;135.13;58.70;;;-1.90;99.90;;;;;;4973776;28;20026;-78
2021/01/11 10:10:31;;;;;;;126.30;51.10;;;-1.80;99.90;;;;;;4974315;28;20042;-78
2021/01/11 10:12:57;;;;;;;137.90;54.25;;;-1.60;99.90;;;;;;4973979;28;20038;-78
2021/01/11 10:15:22;;;;;;;144.23;60.95;;;-1.60;99.30;;;;;;4974084;28;20018;-78
2021/01/11 10:17:48;;;;;;;187.90;80.65;;;-1.50;98.80;;;;;;4973591;28;20027;-78
2021/01/11 10:20:14;;;;;;;209.68;81.05;;;-1.50;94.70;;;;;;4973920;28;20035;-78
2021/01/11 10:22:40;;;;;;;154.05;65.82;;;-1.40;94.60;;;;;;4973915;28;20034;-77
2021/01/11 10:25:07;;;;;;;135.30;58.15;;;-1.40;94.70;;;;;;4972082;28;20027;-78
2021/01/11 10:27:34;;;;;;;127.97;57.00;;;-1.30;93.40;;;;;;4973809;28;20019;-77
2021/01/11 10:30:00;;;;;;;128.63;57.75;;;-1.30;93.60;;;;;;4974801;28;20129;-78
2021/01/11 10:32:26;;;;;;;126.38;59.40;;;-1.20;94.40;;;;;;4991635;28;20036;-78
2021/01/11 10:34:52;;;;;;;139.05;59.78;;;-1.10;94.50;;;;;;4992762;28;20451;-78
2021/01/11 10:37:17;;;;;;;124.13;54.88;;;-1.10;92.80;;;;;;4992711;28;20041;-78
2021/01/11 10:39:44;;;;;;;111.75;52.92;;;-1.00;92.00;;;;;;4992241;28;20030;-78
2021/01/11 10:42:10;;;;;;;116.68;50.33;;;-1.00;91.80;;;;;;4992534;28;20472;-78
2021/01/11 10:44:35;;;;;;;118.20;53.33;;;-1.00;89.00;;;;;;4992975;28;20026;-78
2021/01/11 10:47:01;;;;;;;123.15;53.50;;;-0.90;88.90;;;;;;4991541;28;20038;-78
2021/01/11 10:49:28;;;;;;;108.30;48.70;;;-0.90;88.00;;;;;;4991782;28;20383;-78
2021/01/11 10:51:57;;;;;;;115.75;52.58;;;-1.00;88.50;;;;;;4991708;28;20504;-78
2021/01/11 10:54:24;;;;;;;102.47;46.25;;;-0.90;89.00;;;;;;4991712;28;20038;-79
2021/01/11 10:56:51;;;;;;;113.35;47.88;;;-0.90;89.40;;;;;;4975075;28;20081;-79
2021/01/11 10:59:17;;;;;;;109.65;44.65;;;-0.80;90.20;;;;;;4973376;28;20110;-78
2021/01/11 11:01:43;;;;;;;107.78;44.88;;;-0.80;89.30;;;;;;4972008;28;20608;-79
2021/01/11 11:04:10;;;;;;;110.03;47.60;;;-0.80;88.60;;;;;;4973406;28;20109;-78
2021/01/11 11:06:35;;;;;;;125.68;51.22;;;-0.80;87.90;;;;;;4972291;28;20030;-78
2021/01/11 11:09:01;;;;;;;104.40;47.05;;;-0.80;87.70;;;;;;4973250;28;20046;-78
2021/01/11 11:11:27;;;;;;;105.35;48.38;;;-0.80;87.40;;;;;;4973427;28;20174;-78
2021/01/11 11:13:52;;;;;;;111.30;49.15;;;-0.80;87.70;;;;;;4972201;28;20023;-78
2021/01/11 11:16:18;;;;;;;101.65;47.55;;;-0.80;87.70;;;;;;4971854;28;20118;-78
2021/01/11 11:18:43;;;;;;;107.93;46.22;;;-0.70;88.40;;;;;;4971975;28;20384;-78
2021/01/11 11:21:11;;;;;;;108.05;46.63;;;-0.70;88.20;;;;;;4973336;28;20015;-78
2021/01/11 11:23:38;;;;;;;106.68;46.20;;;-0.60;88.20;;;;;;4976982;28;20042;-78
2021/01/11 11:26:05;;;;;;;112.63;50.58;;;-0.70;87.90;;;;;;4981363;28;20082;-78
2021/01/11 11:28:33;;;;;;;102.13;47.58;;;-0.60;87.60;;;;;;4970405;28;20027;-78
2021/01/11 11:30:58;;;;;;;102.03;47.05;;;-0.60;87.40;;;;;;4970783;28;20458;-78
2021/01/11 11:33:25;;;;;;;104.43;49.42;;;-0.60;86.60;;;;;;4973257;28;20109;-78
2021/01/11 11:35:51;;;;;;;117.30;50.67;;;-0.60;86.60;;;;;;4971711;28;20055;-78
2021/01/11 11:38:20;;;;;;;113.18;50.72;;;-0.60;86.40;;;;;;4974183;28;20061;-78
2021/01/11 11:40:46;;;;;;;112.97;52.88;;;-0.50;87.30;;;;;;4978200;28;20058;-78
2021/01/11 11:43:13;;;;;;;112.18;49.45;;;-0.40;88.10;;;;;;4995721;28;20045;-78
2021/01/11 11:45:39;;;;;;;124.95;53.53;;;-0.40;87.50;;;;;;4995324;28;20106;-78
2021/01/11 11:48:04;;;;;;;106.95;45.72;;;-0.40;88.30;;;;;;4994911;28;20030;-79
2021/01/11 11:50:30;;;;;;;93.53;43.15;;;-0.40;85.00;;;;;;4995564;28;20044;-79
2021/01/11 11:52:56;;;;;;;100.15;43.85;;;-0.40;82.30;;;;;;4994762;28;20080;-79
2021/01/11 11:55:22;;;;;;;101.28;43.08;;;-0.30;82.30;;;;;;4975085;28;20030;-80
2021/01/11 11:57:48;;;;;;;104.28;43.35;;;-0.30;84.70;;;;;;4975572;28;20031;-80
2021/01/11 12:00:15;;;;;;;109.85;44.33;;;-0.30;83.10;;;;;;4973292;28;20027;-78
2021/01/11 12:02:46;;;;;;;109.10;44.88;;;-0.20;84.40;;;;;;4975174;28;20026;-78
2021/01/11 12:05:14;;;;;;;97.82;40.95;;;-0.20;82.90;;;;;;4975283;28;20049;-78
2021/01/11 12:07:40;;;;;;;87.72;39.42;;;-0.20;81.20;;;;;;4975207;28;20378;-78
2021/01/11 12:10:07;;;;;;;96.80;42.63;;;-0.10;81.10;;;;;;4975201;28;20065;-78
2021/01/11 12:12:33;;;;;;;107.70;44.25;;;-0.10;81.10;;;;;;4974290;28;20105;-78
2021/01/11 12:15:00;;;;;;;93.32;43.35;;;-0.10;81.30;;;;;;4974917;28;20090;-78
2021/01/11 12:17:26;;;;;;;95.60;42.78;;;-0.10;81.20;;;;;;4976196;28;20022;-78
2021/01/11 12:19:52;;;;;;;97.72;42.88;;;-0.10;82.40;;;;;;4974904;28;20023;-78
2021/01/11 12:22:18;;;;;;;97.03;42.08;;;-0.10;82.20;;;;;;4974877;28;20030;-78
2021/01/11 12:24:43;;;;;;;105.97;45.85;;;-0.10;82.20;;;;;;4975775;28;20109;-78
2021/01/11 12:27:09;;;;;;;102.32;46.85;;;-0.10;82.70;;;;;;4991010;28;20027;-78
2021/01/11 12:29:35;;;;;;;111.25;47.78;;;-0.10;82.10;;;;;;4974797;28;20107;-78